createdAt,value
2023-04-28T00:00:41.174Z,38.29
2023-04-28T00:03:20.053Z,38.92
2023-04-28T00:05:49.647Z,39.16
2023-04-28T00:08:17.561Z,39.17
2023-04-28T00:10:45.054Z,39.60
2023-04-28T00:13:12.996Z,39.52
2023-04-28T00:15:40.610Z,39.87
2023-04-28T00:18:08.513Z,40.19
2023-04-28T00:20:36.029Z,40.48
2023-04-28T00:23:04.008Z,40.43
2023-04-28T00:25:31.512Z,39.89
2023-04-28T00:27:59.291Z,40.10
2023-04-28T00:30:26.748Z,40.37
2023-04-28T00:32:54.939Z,40.33
2023-04-28T00:35:22.716Z,40.43
2023-04-28T00:37:50.583Z,40.62
2023-04-28T00:40:18.435Z,40.38
2023-04-28T00:42:46.275Z,40.29
2023-04-28T00:45:13.683Z,40.54
2023-04-28T00:47:42.434Z,40.89
2023-04-28T00:50:10.750Z,41.82
2023-04-28T00:52:39.002Z,41.65
2023-04-28T00:55:08.065Z,41.80
2023-04-28T00:57:36.273Z,42.14
2023-04-28T01:00:04.420Z,42.73
2023-04-28T01:02:32.638Z,42.96
2023-04-28T01:05:00.474Z,43.93
2023-04-28T01:07:28.814Z,44.66
2023-04-28T01:09:56.809Z,44.70
2023-04-28T01:12:31.073Z,45.08
2023-04-28T01:14:59.698Z,46.22
2023-04-28T01:17:28.620Z,45.72
2023-04-28T01:19:56.518Z,46.56
2023-04-28T01:22:24.435Z,46.82
2023-04-28T01:24:52.021Z,46.97
2023-04-28T01:27:19.817Z,47.17
2023-04-28T01:29:47.331Z,46.83
2023-04-28T01:32:16.235Z,47.12
2023-04-28T01:34:43.778Z,47.12
2023-04-28T01:37:11.667Z,47.26
2023-04-28T01:39:39.161Z,47.83
2023-04-28T01:42:07.175Z,47.65
2023-04-28T01:44:35.206Z,47.87
2023-04-28T01:47:03.044Z,48.18
2023-04-28T01:49:30.996Z,48.11
2023-04-28T01:51:58.832Z,48.63
2023-04-28T01:54:27.491Z,48.46
2023-04-28T01:56:55.881Z,49.02
2023-04-28T01:59:25.206Z,48.97
2023-04-28T02:01:53.163Z,49.41
2023-04-28T02:04:21.602Z,49.61
2023-04-28T02:06:50.798Z,49.37
2023-04-28T02:09:18.389Z,49.04
2023-04-28T02:11:46.235Z,49.56
2023-04-28T02:14:13.876Z,49.25
2023-04-28T02:16:42.083Z,49.70
2023-04-28T02:19:09.674Z,49.82
2023-04-28T02:21:38.519Z,52.01
2023-04-28T02:24:08.287Z,51.65
2023-04-28T02:26:36.109Z,51.89
2023-04-28T02:29:06.536Z,52.46
2023-04-28T02:31:34.489Z,53.41
2023-04-28T02:34:02.063Z,52.95
2023-04-28T02:36:29.942Z,53.30
2023-04-28T02:38:57.790Z,54.13
2023-04-28T02:41:26.653Z,54.14
2023-04-28T02:43:54.169Z,54.08
2023-04-28T02:46:22.034Z,55.59
2023-04-28T02:48:49.603Z,54.96
2023-04-28T02:51:18.626Z,56.64
2023-04-28T02:53:46.802Z,55.02
2023-04-28T02:56:14.739Z,56.04
2023-04-28T02:58:42.261Z,56.60
2023-04-28T03:01:10.071Z,55.71
2023-04-28T03:03:37.859Z,56.26
2023-04-28T03:06:06.001Z,56.44
2023-04-28T03:08:33.516Z,57.27
2023-04-28T03:11:01.434Z,56.02
2023-04-28T03:13:30.199Z,56.49
2023-04-28T03:15:58.561Z,56.84
2023-04-28T03:18:26.150Z,56.79
2023-04-28T03:20:55.153Z,56.77
2023-04-28T03:23:22.701Z,56.49
2023-04-28T03:25:50.629Z,55.72
2023-04-28T03:28:18.343Z,56.78
2023-04-28T03:30:46.696Z,56.37
2023-04-28T03:33:14.332Z,56.37
2023-04-28T03:35:42.292Z,56.45
2023-04-28T03:38:09.957Z,56.21
2023-04-28T03:40:37.972Z,55.34
2023-04-28T03:43:11.256Z,55.93
2023-04-28T03:45:46.126Z,55.92
2023-04-28T03:48:13.629Z,56.16
2023-04-28T03:50:42.730Z,56.40
2023-04-28T03:53:10.253Z,56.80
2023-04-28T03:55:38.994Z,56.48
2023-04-28T03:58:06.496Z,55.85
2023-04-28T04:00:35.685Z,56.49
2023-04-28T04:03:03.899Z,56.27
2023-04-28T04:05:32.090Z,55.58
2023-04-28T04:07:59.762Z,55.96
2023-04-28T04:10:27.963Z,55.41
2023-04-28T04:12:55.778Z,55.79
2023-04-28T04:15:23.695Z,55.84
2023-04-28T04:17:51.312Z,56.10
2023-04-28T04:20:19.151Z,55.56
2023-04-28T04:22:47.076Z,55.25
2023-04-28T04:25:16.031Z,54.97
2023-04-28T04:27:47.612Z,54.84
2023-04-28T04:30:15.743Z,55.12
2023-04-28T04:32:43.453Z,55.01
2023-04-28T04:35:11.473Z,55.85
2023-04-28T04:37:39.183Z,55.19
2023-04-28T04:40:07.360Z,55.00
2023-04-28T04:42:40.676Z,55.61
2023-04-28T04:45:12.471Z,55.38
2023-04-28T04:47:40.566Z,55.73
2023-04-28T04:50:08.742Z,55.14
2023-04-28T04:52:36.272Z,55.46
2023-04-28T04:55:04.916Z,56.17
2023-04-28T04:57:33.560Z,55.85
2023-04-28T05:00:12.007Z,56.00
2023-04-28T05:02:40.223Z,56.20
2023-04-28T05:05:20.469Z,55.61
2023-04-28T05:08:01.202Z,56.04
2023-04-28T05:10:29.514Z,56.98
2023-04-28T05:12:57.358Z,56.19
2023-04-28T05:15:25.547Z,55.76
2023-04-28T05:18:15.413Z,55.94
2023-04-28T05:20:43.409Z,55.14
2023-04-28T05:23:12.314Z,54.26
2023-04-28T05:25:41.698Z,54.70
2023-04-28T05:28:10.695Z,54.16
2023-04-28T05:30:38.685Z,53.68
2023-04-28T05:33:06.251Z,53.72
2023-04-28T05:35:34.328Z,53.71
2023-04-28T05:38:02.243Z,53.53
2023-04-28T05:40:30.252Z,53.20
2023-04-28T05:42:57.822Z,52.59
2023-04-28T05:45:25.958Z,52.76
2023-04-28T05:47:55.053Z,52.39
2023-04-28T05:50:23.451Z,51.85
2023-04-28T05:52:51.588Z,52.81
2023-04-28T05:55:19.577Z,52.55
2023-04-28T05:57:53.130Z,52.44
2023-04-28T06:00:22.340Z,52.01
2023-04-28T06:02:53.663Z,51.80
2023-04-28T06:05:23.386Z,51.85
2023-04-28T06:07:55.124Z,50.29
2023-04-28T06:10:26.259Z,50.36
2023-04-28T06:12:53.832Z,49.76
2023-04-28T06:15:21.693Z,50.09
2023-04-28T06:17:49.450Z,49.04
2023-04-28T06:20:19.549Z,48.84
2023-04-28T06:22:47.195Z,49.27
2023-04-28T06:25:15.153Z,49.56
2023-04-28T06:27:46.304Z,50.20
2023-04-28T06:30:18.954Z,50.19
2023-04-28T06:32:48.482Z,50.59
2023-04-28T06:35:16.761Z,50.75
2023-04-28T06:37:44.472Z,51.26
2023-04-28T06:40:13.714Z,50.81
2023-04-28T06:42:51.036Z,51.02
2023-04-28T06:45:26.832Z,49.89
2023-04-28T06:47:57.585Z,50.25
2023-04-28T06:50:25.541Z,50.25
2023-04-28T06:52:53.240Z,49.49
2023-04-28T06:55:22.384Z,48.96
2023-04-28T06:57:51.208Z,48.93
2023-04-28T07:00:19.115Z,49.46
2023-04-28T07:02:46.823Z,48.74
2023-04-28T07:05:16.553Z,48.86
2023-04-28T07:07:45.701Z,48.47
2023-04-28T07:10:15.935Z,47.18
2023-04-28T07:12:43.527Z,46.15
2023-04-28T07:15:12.951Z,45.61
2023-04-28T07:17:40.803Z,45.53
2023-04-28T07:20:09.010Z,45.07
2023-04-28T07:22:36.710Z,45.12
2023-04-28T07:25:04.782Z,44.84
2023-04-28T07:27:32.468Z,44.14
2023-04-28T07:30:03.095Z,44.09
2023-04-28T07:32:37.021Z,43.41
2023-04-28T07:35:05.015Z,42.70
2023-04-28T07:37:33.214Z,41.95
2023-04-28T07:40:01.083Z,40.03
2023-04-28T07:42:28.662Z,38.70
2023-04-28T07:44:58.509Z,37.82
2023-04-28T07:47:26.947Z,36.44
2023-04-28T07:49:55.942Z,36.34
2023-04-28T07:52:23.460Z,35.47
2023-04-28T07:54:51.320Z,34.72
2023-04-28T07:57:18.809Z,35.02
2023-04-28T07:59:46.712Z,35.68
2023-04-28T08:02:15.533Z,35.48
2023-04-28T08:04:43.532Z,35.73
2023-04-28T08:07:11.159Z,34.88
2023-04-28T08:09:42.159Z,35.22
2023-04-28T08:12:09.780Z,34.97
2023-04-28T08:14:37.677Z,33.33
2023-04-28T08:17:06.468Z,33.78
2023-04-28T08:19:34.520Z,33.96
2023-04-28T08:22:06.287Z,32.63
2023-04-28T08:24:37.067Z,32.12
2023-04-28T08:27:04.747Z,32.28
2023-04-28T08:29:32.784Z,32.13
2023-04-28T08:32:02.127Z,32.01
2023-04-28T08:34:30.087Z,30.19
2023-04-28T08:36:57.564Z,29.80
2023-04-28T08:39:27.565Z,29.96
2023-04-28T08:41:55.162Z,29.80
2023-04-28T08:44:24.168Z,30.84
2023-04-28T08:46:54.624Z,30.95
2023-04-28T08:49:23.789Z,30.62
2023-04-28T08:51:56.027Z,31.18
2023-04-28T08:54:28.354Z,31.29
2023-04-28T08:56:57.708Z,31.23
2023-04-28T08:59:26.004Z,32.06
2023-04-28T09:01:53.638Z,32.03
2023-04-28T09:04:23.119Z,32.83
2023-04-28T09:06:51.088Z,31.99
2023-04-28T09:09:20.368Z,31.50
2023-04-28T09:12:05.863Z,31.16
2023-04-28T09:14:37.465Z,30.96
2023-04-28T09:17:14.915Z,31.27
2023-04-28T09:19:45.618Z,30.29
2023-04-28T09:24:44.008Z,29.87
2023-04-28T09:27:12.225Z,27.75
2023-04-28T09:29:52.041Z,29.02
2023-04-28T09:32:21.109Z,28.63
2023-04-28T09:34:53.993Z,28.85
2023-04-28T09:37:22.828Z,26.66
2023-04-28T09:39:52.033Z,27.80
2023-04-28T09:42:38.345Z,28.86
2023-04-28T09:45:09.174Z,28.48
2023-04-28T09:47:41.096Z,28.63
2023-04-28T09:50:12.634Z,27.47
2023-04-28T09:52:42.134Z,27.85
2023-04-28T09:55:11.201Z,27.46
2023-04-28T09:57:39.230Z,26.83
2023-04-28T10:00:09.742Z,27.29
2023-04-28T10:05:11.743Z,27.42
2023-04-28T10:07:40.751Z,26.83
2023-04-28T10:10:09.964Z,27.55
2023-04-28T10:12:39.294Z,28.37
2023-04-28T10:15:08.580Z,28.22
2023-04-28T10:17:37.049Z,28.39
2023-04-28T10:20:05.521Z,26.41
2023-04-28T10:22:43.387Z,26.89
2023-04-28T10:25:12.063Z,25.20
2023-04-28T10:27:43.926Z,27.35
2023-04-28T10:30:19.322Z,24.90
2023-04-28T10:33:15.081Z,24.88
2023-04-28T10:35:44.855Z,23.67
2023-04-28T10:38:14.603Z,23.52
2023-04-28T10:40:43.561Z,25.00
2023-04-28T10:43:12.405Z,24.45
2023-04-28T10:46:01.352Z,25.29
2023-04-28T10:48:29.554Z,25.27
2023-04-28T10:50:57.408Z,25.35
2023-04-28T10:53:45.058Z,24.51
2023-04-28T10:56:15.124Z,24.93
2023-04-28T10:58:43.923Z,25.67
2023-04-28T11:01:22.075Z,26.03
2023-04-28T11:03:52.621Z,25.10
2023-04-28T11:06:24.039Z,22.71
2023-04-28T11:08:51.793Z,22.92
2023-04-28T11:11:21.337Z,22.91
2023-04-28T11:13:49.477Z,23.14
2023-04-28T11:16:19.956Z,23.65
2023-04-28T11:19:04.649Z,23.89
2023-04-28T11:21:33.169Z,23.01
2023-04-28T11:24:00.893Z,24.17
2023-04-28T11:26:29.241Z,24.46
2023-04-28T11:28:57.490Z,24.46
2023-04-28T11:31:26.334Z,24.79
2023-04-28T11:33:56.070Z,25.22
2023-04-28T11:36:34.033Z,24.25
2023-04-28T11:39:05.163Z,24.70
2023-04-28T11:41:38.392Z,24.90
2023-04-28T11:44:16.175Z,24.74
2023-04-28T11:46:53.972Z,23.94
2023-04-28T11:49:24.713Z,23.29
2023-04-28T11:51:53.012Z,22.92
2023-04-28T11:54:27.492Z,22.93
2023-04-28T11:56:57.817Z,22.37
2023-04-28T11:59:27.118Z,23.75
2023-04-28T12:01:59.891Z,24.36
2023-04-28T12:04:38.003Z,24.75
2023-04-28T12:07:13.609Z,25.19
2023-04-28T12:09:45.464Z,25.72
2023-04-28T12:12:17.269Z,25.33
2023-04-28T12:15:02.483Z,25.09
2023-04-28T12:17:34.846Z,25.95
2023-04-28T12:20:04.603Z,26.01
2023-04-28T12:22:43.532Z,25.50
2023-04-28T12:25:12.689Z,25.57
2023-04-28T12:27:42.272Z,25.45
2023-04-28T12:30:16.653Z,25.51
2023-04-28T12:32:44.633Z,26.53
2023-04-28T12:35:12.263Z,26.51
2023-04-28T12:37:42.009Z,25.24
2023-04-28T12:40:10.820Z,25.85
2023-04-28T12:42:39.770Z,25.55
2023-04-28T12:45:07.992Z,25.75
2023-04-28T12:47:36.092Z,26.17
2023-04-28T12:50:03.913Z,25.69
2023-04-28T12:52:33.994Z,26.42
2023-04-28T12:55:02.124Z,25.70
2023-04-28T12:57:30.126Z,26.43
2023-04-28T12:59:57.787Z,25.72
2023-04-28T13:02:26.986Z,24.36
2023-04-28T13:04:54.833Z,22.94
2023-04-28T13:07:23.065Z,22.27
2023-04-28T13:09:50.575Z,23.65
2023-04-28T13:12:20.008Z,24.60
2023-04-28T13:14:47.615Z,24.68
2023-04-28T13:17:15.617Z,24.61
2023-04-28T13:19:44.033Z,25.14
2023-04-28T13:22:12.533Z,23.93
2023-04-28T13:24:40.224Z,23.80
2023-04-28T13:27:10.365Z,22.98
2023-04-28T13:29:38.185Z,24.18
2023-04-28T13:32:06.465Z,24.28
2023-04-28T13:34:34.223Z,24.17
2023-04-28T13:37:02.149Z,24.50
2023-04-28T13:39:29.820Z,26.61
2023-04-28T13:41:58.863Z,25.67
2023-04-28T13:44:26.558Z,24.48
2023-04-28T13:46:54.898Z,25.09
2023-04-28T13:49:24.460Z,25.17
2023-04-28T13:51:52.349Z,24.96
2023-04-28T13:54:20.319Z,23.72
2023-04-28T13:56:49.846Z,24.50
2023-04-28T13:59:17.470Z,24.87
2023-04-28T14:01:45.786Z,26.63
2023-04-28T14:04:13.772Z,26.90
2023-04-28T14:06:42.435Z,25.73
2023-04-28T14:09:10.595Z,25.55
2023-04-28T14:11:39.635Z,26.97
2023-04-28T14:14:07.347Z,27.32
2023-04-28T14:16:35.346Z,26.15
2023-04-28T14:19:03.021Z,26.41
2023-04-28T14:21:33.364Z,26.26
2023-04-28T14:24:00.949Z,25.57
2023-04-28T14:26:29.125Z,25.79
2023-04-28T14:28:56.904Z,25.98
2023-04-28T14:31:25.056Z,25.12
2023-04-28T14:33:52.706Z,24.70
2023-04-28T14:36:20.809Z,25.12
2023-04-28T14:38:48.374Z,25.42
2023-04-28T14:41:16.545Z,25.09
2023-04-28T14:43:45.034Z,26.04
2023-04-28T14:46:13.058Z,26.68
2023-04-28T14:48:40.711Z,27.28
2023-04-28T14:51:08.592Z,26.66
2023-04-28T14:53:36.195Z,26.30
2023-04-28T14:56:17.343Z,24.87
2023-04-28T14:58:46.407Z,25.29
2023-04-28T15:01:14.511Z,25.14
2023-04-28T15:03:43.681Z,25.66
2023-04-28T15:06:12.257Z,26.85
2023-04-28T15:08:40.988Z,27.16
2023-04-28T15:11:08.817Z,27.39
2023-04-28T15:13:36.534Z,26.39
2023-04-28T15:16:05.553Z,27.26
2023-04-28T15:18:33.229Z,27.93
2023-04-28T15:21:01.381Z,27.05
2023-04-28T15:23:29.051Z,27.92
2023-04-28T15:25:56.865Z,28.25
2023-04-28T15:28:25.016Z,28.28
2023-04-28T15:30:54.455Z,28.38
2023-04-28T15:33:24.403Z,27.14
2023-04-28T15:35:52.765Z,27.48
2023-04-28T15:38:20.537Z,27.69
2023-04-28T15:40:49.657Z,28.54
2023-04-28T15:43:17.195Z,28.76
2023-04-28T15:45:47.263Z,28.18
2023-04-28T15:48:15.424Z,28.69
2023-04-28T15:50:43.816Z,29.67
2023-04-28T15:53:11.611Z,29.75
2023-04-28T15:55:39.576Z,29.61
2023-04-28T15:58:09.645Z,28.78
2023-04-28T16:00:40.769Z,28.64
2023-04-28T16:03:08.618Z,29.24
2023-04-28T16:05:38.636Z,29.08
2023-04-28T16:08:06.317Z,29.00
2023-04-28T16:10:35.291Z,29.09
2023-04-28T16:13:03.369Z,29.58
2023-04-28T16:15:31.217Z,29.10
2023-04-28T16:17:58.866Z,29.35
2023-04-28T16:20:28.158Z,30.15
2023-04-28T16:22:56.381Z,30.30
2023-04-28T16:25:24.406Z,30.81
2023-04-28T16:27:52.027Z,30.33
2023-04-28T16:30:20.161Z,31.26
2023-04-28T16:32:47.708Z,30.52
2023-04-28T16:35:16.833Z,30.92
2023-04-28T16:37:44.662Z,30.60
2023-04-28T16:40:12.891Z,30.99
2023-04-28T16:42:40.671Z,31.27
2023-04-28T16:45:08.858Z,30.72
2023-04-28T16:47:36.472Z,30.91
2023-04-28T16:50:04.534Z,32.01
2023-04-28T16:52:33.338Z,32.61
2023-04-28T16:55:02.392Z,32.95
2023-04-28T16:57:30.012Z,33.32
2023-04-28T16:59:57.994Z,32.80
2023-04-28T17:02:26.403Z,33.30
2023-04-28T17:04:54.529Z,33.49
2023-04-28T17:07:24.086Z,33.34
2023-04-28T17:09:54.060Z,34.06
2023-04-28T17:12:23.442Z,33.50
2023-04-28T17:14:52.990Z,33.76
2023-04-28T17:17:20.578Z,33.51
2023-04-28T17:19:48.615Z,34.15
2023-04-28T17:22:16.350Z,34.48
2023-04-28T17:24:45.667Z,34.36
2023-04-28T17:27:14.844Z,34.84
2023-04-28T17:29:43.556Z,34.92
2023-04-28T17:32:11.233Z,34.78
2023-04-28T17:34:39.277Z,34.96
2023-04-28T17:37:07.114Z,34.79
2023-04-28T17:39:34.965Z,35.03
2023-04-28T17:42:03.849Z,34.74
2023-04-28T17:44:32.993Z,35.70
2023-04-28T17:47:01.466Z,35.91
2023-04-28T17:49:32.128Z,35.70
2023-04-28T17:51:59.709Z,36.05
2023-04-28T17:54:28.078Z,36.13
2023-04-28T17:56:56.003Z,36.49
2023-04-28T17:59:24.288Z,36.38
2023-04-28T18:01:53.993Z,36.57
2023-04-28T18:04:22.939Z,36.83
2023-04-28T18:06:50.567Z,36.62
2023-04-28T18:09:18.438Z,37.07
2023-04-28T18:11:46.116Z,37.08
2023-04-28T18:14:15.736Z,37.50
2023-04-28T18:16:43.355Z,37.42
2023-04-28T18:19:11.289Z,37.11
2023-04-28T18:21:38.947Z,37.70
2023-04-28T18:24:07.641Z,37.93
2023-04-28T18:26:35.179Z,37.81
2023-04-28T18:29:03.115Z,38.16
2023-04-28T18:31:30.791Z,38.51
2023-04-28T18:34:00.138Z,38.89
2023-04-28T18:36:27.895Z,38.67
2023-04-28T18:38:56.153Z,38.91
2023-04-28T18:41:23.948Z,39.16
2023-04-28T18:43:52.086Z,39.76
2023-04-28T18:46:19.900Z,40.59
2023-04-28T18:48:48.947Z,40.57
2023-04-28T18:51:16.634Z,40.95
2023-04-28T18:53:44.488Z,41.17
2023-04-28T18:56:12.155Z,41.68
2023-04-28T18:58:42.864Z,42.21
2023-04-28T19:01:16.200Z,42.19
2023-04-28T19:03:44.969Z,42.05
2023-04-28T19:06:14.739Z,42.12
2023-04-28T19:12:27.920Z,43.16
2023-04-28T19:14:55.942Z,42.66
2023-04-28T19:17:24.964Z,42.81
2023-04-28T19:19:54.830Z,43.47
2023-04-28T19:22:38.566Z,43.22
2023-04-28T19:25:07.222Z,42.99
2023-04-28T19:27:35.827Z,43.06
2023-04-28T19:30:04.739Z,43.09
2023-04-28T19:32:32.785Z,43.38
2023-04-28T19:35:00.522Z,42.78
2023-04-28T19:37:28.507Z,42.80
2023-04-28T19:39:56.100Z,43.23
2023-04-28T19:42:23.918Z,43.58
2023-04-28T19:44:55.792Z,43.98
2023-04-28T19:47:24.357Z,44.32
2023-04-28T19:49:52.734Z,44.52
2023-04-28T19:52:22.099Z,43.81
2023-04-28T19:54:50.075Z,44.28
2023-04-28T19:59:45.658Z,44.42
2023-04-28T20:02:14.239Z,44.59
2023-04-28T20:04:42.162Z,44.49
2023-04-28T20:07:11.647Z,44.49
2023-04-28T20:09:39.192Z,44.40
2023-04-28T20:12:08.827Z,44.14
2023-04-28T20:14:37.480Z,43.55
2023-04-28T20:17:05.801Z,43.78
2023-04-28T20:19:33.542Z,43.78
2023-04-28T20:22:08.139Z,43.65
2023-04-28T20:24:37.427Z,43.38
2023-04-28T20:27:05.462Z,42.93
2023-04-28T20:29:35.250Z,42.73
2023-04-28T20:32:03.703Z,42.19
2023-04-28T20:34:32.457Z,42.51
2023-04-28T20:37:03.485Z,42.81
2023-04-28T20:39:31.300Z,42.85
2023-04-28T20:42:00.998Z,43.20
2023-04-28T20:44:28.645Z,43.63
2023-04-28T20:46:57.342Z,43.60
2023-04-28T20:49:25.404Z,44.10
2023-04-28T20:51:53.623Z,44.17
2023-04-28T20:54:21.288Z,44.59
2023-04-28T20:56:49.262Z,45.04
2023-04-28T20:59:16.936Z,45.33
2023-04-28T21:01:45.007Z,44.89
2023-04-28T21:04:12.846Z,44.73
2023-04-28T21:06:40.877Z,45.43
2023-04-28T21:09:08.618Z,45.20
2023-04-28T21:11:36.614Z,44.79
2023-04-28T21:14:04.292Z,45.20
2023-04-28T21:16:33.214Z,44.91
2023-04-28T21:19:01.359Z,44.90
2023-04-28T21:21:29.825Z,45.06
2023-04-28T21:23:57.464Z,44.89
2023-04-28T21:26:27.266Z,45.37
2023-04-28T21:28:56.580Z,46.12
2023-04-28T21:31:25.783Z,46.04
2023-04-28T21:33:53.692Z,45.79
2023-04-28T21:36:22.648Z,45.90
2023-04-28T21:38:50.295Z,45.33
2023-04-28T21:41:21.592Z,45.74
2023-04-28T21:43:49.323Z,47.36
2023-04-28T21:46:19.283Z,46.86
2023-04-28T21:48:47.395Z,47.16
2023-04-28T21:51:15.364Z,47.71
2023-04-28T21:53:43.242Z,47.21
2023-04-28T21:56:12.056Z,47.17
2023-04-28T21:58:39.783Z,47.80
2023-04-28T22:01:09.015Z,48.18
2023-04-28T22:03:39.370Z,47.84
2023-04-28T22:06:07.391Z,47.74
2023-04-28T22:08:35.039Z,48.60
2023-04-28T22:11:04.377Z,48.80
2023-04-28T22:13:31.869Z,48.13
2023-04-28T22:16:02.205Z,48.01
2023-04-28T22:18:29.741Z,47.79
2023-04-28T22:20:57.620Z,48.10
2023-04-28T22:23:25.321Z,48.28
2023-04-28T22:25:53.265Z,48.13
2023-04-28T22:28:20.792Z,49.02
2023-04-28T22:30:48.728Z,48.66
2023-04-28T22:33:16.286Z,49.13
2023-04-28T22:35:44.132Z,48.53
2023-04-28T22:38:11.764Z,48.71
2023-04-28T22:40:39.725Z,48.92
2023-04-28T22:43:07.243Z,49.72
2023-04-28T22:45:36.117Z,50.49
2023-04-28T22:48:03.857Z,51.08
2023-04-28T22:50:32.933Z,50.63
2023-04-28T22:53:00.640Z,50.69
2023-04-28T22:55:28.601Z,51.04
2023-04-28T22:57:56.526Z,50.25
2023-04-28T23:00:24.366Z,50.29
2023-04-28T23:02:52.278Z,49.84
2023-04-28T23:05:20.138Z,49.30
2023-04-28T23:07:47.649Z,49.34
2023-04-28T23:10:15.719Z,49.74
2023-04-28T23:12:43.650Z,49.80
2023-04-28T23:15:11.700Z,49.87
2023-04-28T23:17:39.295Z,50.41
2023-04-28T23:20:07.606Z,50.50
2023-04-28T23:22:35.150Z,51.51
2023-04-28T23:25:04.581Z,51.20
2023-04-28T23:27:32.261Z,51.54
2023-04-28T23:30:00.369Z,51.71
2023-04-28T23:32:27.983Z,51.37
2023-04-28T23:34:55.878Z,51.66
2023-04-28T23:37:23.524Z,51.72
2023-04-28T23:39:51.729Z,51.69
2023-04-28T23:42:20.455Z,53.17
2023-04-28T23:44:48.337Z,52.63
2023-04-28T23:47:15.911Z,53.02
2023-04-28T23:49:43.807Z,53.05
2023-04-28T23:52:11.659Z,54.06
2023-04-28T23:54:39.459Z,53.32
2023-04-28T23:57:06.998Z,52.60
2023-04-28T23:59:34.850Z,53.00
